Time;durP1;ratioP1;P1;durP2;ratioP2;P2;SDS_P1;SDS_P2;PMS_P1;PMS_P2;Temp;Humidity;BMP_temperature;BMP_pressure;BME280_temperature;BME280_humidity;BME280_pressure;Samples;Min_cycle;Max_cycle;Signal;HPM_P1;HPM_P2
2022/06/01 00:01:18;;;;;;;1.67;1.10;;;16.90;99.90;;;;;;5134942;27;20385;-60
2022/06/01 00:03:44;;;;;;;1.60;0.93;;;16.90;99.90;;;;;;5134868;27;20027;-58
2022/06/01 00:06:11;;;;;;;3.47;1.27;;;16.90;99.90;;;;;;5134997;27;20023;-59
2022/06/01 00:08:37;;;;;;;2.17;1.83;;;16.90;99.90;;;;;;5134973;27;20102;-58
2022/06/01 00:11:04;;;;;;;2.72;2.40;;;16.80;99.90;;;;;;5135183;27;20031;-57
2022/06/01 00:13:30;;;;;;;2.85;2.05;;;16.60;99.90;;;;;;5134779;27;20027;-56
2022/06/01 00:15:56;;;;;;;4.15;3.13;;;16.50;99.90;;;;;;5135117;27;20043;-60
2022/06/01 00:18:23;;;;;;;4.05;2.65;;;16.40;99.90;;;;;;5134743;27;20031;-60
2022/06/01 00:20:50;;;;;;;3.67;2.00;;;16.30;99.90;;;;;;5134843;27;20377;-61
2022/06/01 00:23:16;;;;;;;2.83;2.30;;;16.30;99.90;;;;;;5134457;27;20495;-57
2022/06/01 00:25:42;;;;;;;4.78;3.17;;;16.30;99.90;;;;;;5134636;27;20156;-60
2022/06/01 00:28:08;;;;;;;3.20;2.60;;;16.30;99.90;;;;;;5134511;27;20094;-58
2022/06/01 00:30:34;;;;;;;6.00;2.90;;;16.20;99.90;;;;;;5134831;27;20023;-56
2022/06/01 00:33:00;;;;;;;3.78;1.92;;;16.10;99.90;;;;;;5134553;27;20473;-59
2022/06/01 00:35:28;;;;;;;3.05;1.80;;;16.10;99.90;;;;;;5134616;27;20107;-55
2022/06/01 00:37:53;;;;;;;3.08;1.70;;;16.10;99.90;;;;;;5134433;27;20034;-60
2022/06/01 00:40:22;;;;;;;1.30;1.20;;;16.20;99.90;;;;;;5134618;27;20031;-62
2022/06/01 00:42:52;;;;;;;2.40;1.30;;;16.20;99.90;;;;;;5134279;27;20019;-60
2022/06/01 00:45:21;;;;;;;2.67;1.98;;;16.30;99.90;;;;;;5134388;27;20072;-58
2022/06/01 00:47:48;;;;;;;2.22;1.77;;;16.20;99.90;;;;;;5134323;27;20026;-57
2022/06/01 00:50:33;;;;;;;1.98;1.65;;;16.00;99.90;;;;;;5134198;27;20473;-62
2022/06/01 00:53:02;;;;;;;2.75;1.33;;;15.90;99.90;;;;;;5134147;27;20012;-61
2022/06/01 00:55:32;;;;;;;2.65;1.20;;;15.90;99.90;;;;;;5133991;28;20051;-58
2022/06/01 00:58:08;;;;;;;1.05;0.80;;;16.00;99.90;;;;;;5134492;28;20106;-57
2022/06/01 01:00:38;;;;;;;0.90;0.90;;;16.10;99.90;;;;;;5134373;28;20019;-56
2022/06/01 01:03:06;;;;;;;1.52;1.00;;;16.20;99.90;;;;;;5134466;28;20028;-57
2022/06/01 01:05:33;;;;;;;1.10;0.93;;;16.20;99.90;;;;;;5134070;28;20015;-61
2022/06/01 01:08:02;;;;;;;0.93;0.75;;;16.20;99.90;;;;;;5134905;27;20034;-59
2022/06/01 01:10:27;;;;;;;0.90;0.80;;;16.20;99.90;;;;;;5138692;27;20419;-58
2022/06/01 01:12:58;;;;;;;0.98;0.88;;;16.20;99.90;;;;;;5138377;27;20015;-59
2022/06/01 01:15:32;;;;;;;2.28;0.80;;;16.20;99.90;;;;;;5138487;27;20084;-57
2022/06/01 01:17:58;;;;;;;1.25;0.80;;;16.20;99.90;;;;;;5138334;27;20019;-59
2022/06/01 01:20:26;;;;;;;0.90;0.70;;;16.20;99.90;;;;;;5138429;27;20601;-61
2022/06/01 01:23:16;;;;;;;1.17;0.90;;;16.20;99.90;;;;;;5137887;27;20076;-59
2022/06/01 01:25:42;;;;;;;1.70;0.77;;;16.20;99.90;;;;;;5138224;27;20080;-59
2022/06/01 01:28:09;;;;;;;2.75;0.70;;;16.20;99.90;;;;;;5138212;27;20015;-59
2022/06/01 01:30:46;;;;;;;2.25;0.88;;;16.20;99.90;;;;;;5138026;27;20030;-58
2022/06/01 01:33:21;;;;;;;1.17;0.65;;;16.20;99.90;;;;;;5137819;27;20081;-58
2022/06/01 01:35:50;;;;;;;0.98;0.82;;;16.20;99.90;;;;;;5138001;27;20030;-58
2022/06/01 01:38:37;;;;;;;0.75;0.55;;;16.10;99.90;;;;;;5138117;27;20074;-58
2022/06/01 01:41:10;;;;;;;1.67;0.60;;;16.10;99.90;;;;;;5138002;27;20417;-58
2022/06/01 01:44:01;;;;;;;0.63;0.63;;;16.10;99.90;;;;;;5137799;27;20027;-58
2022/06/01 01:46:30;;;;;;;0.40;0.40;;;16.10;99.90;;;;;;5137994;27;20073;-56
2022/06/01 01:48:55;;;;;;;0.95;0.73;;;16.10;99.90;;;;;;5137427;27;20483;-57
2022/06/01 01:51:25;;;;;;;0.93;0.70;;;16.10;99.90;;;;;;5137466;27;20035;-57
2022/06/01 01:53:51;;;;;;;1.63;1.00;;;16.10;99.90;;;;;;5137780;27;20026;-61
2022/06/01 01:56:20;;;;;;;2.47;1.30;;;16.10;99.90;;;;;;5137337;27;20038;-57
2022/06/01 01:59:43;;;;;;;1.77;1.05;;;16.00;99.90;;;;;;5137458;27;20038;-59
2022/06/01 02:02:33;;;;;;;1.10;0.98;;;15.90;99.90;;;;;;5079062;27;20039;-62
2022/06/01 02:08:24;;;;;;;1.48;1.02;;;15.90;99.90;;;;;;5137562;27;20429;-60
2022/06/01 02:13:37;;;;;;;1.33;0.80;;;15.90;99.90;;;;;;5137624;27;19984;-54
2022/06/01 02:16:03;;;;;;;1.08;0.75;;;15.80;99.90;;;;;;5137141;27;20026;-59
2022/06/01 02:18:35;;;;;;;1.65;0.85;;;15.80;99.90;;;;;;5136311;27;20019;-60
2022/06/01 02:21:06;;;;;;;1.42;1.00;;;15.80;99.90;;;;;;5136893;27;20023;-58
2022/06/01 02:23:32;;;;;;;3.15;1.10;;;15.90;99.90;;;;;;5137054;27;20430;-58
2022/06/01 02:26:00;;;;;;;2.45;0.82;;;15.80;99.90;;;;;;5136900;27;20015;-61
2022/06/01 02:28:27;;;;;;;0.90;0.80;;;15.80;99.90;;;;;;5137008;27;20022;-61
2022/06/01 02:30:55;;;;;;;1.20;0.70;;;15.80;99.90;;;;;;5137123;27;20072;-57
2022/06/01 02:33:24;;;;;;;1.15;0.85;;;15.70;99.90;;;;;;5136514;27;20089;-59
2022/06/01 02:35:53;;;;;;;2.13;1.00;;;15.70;99.90;;;;;;5136691;27;20031;-59
2022/06/01 02:38:25;;;;;;;2.50;1.00;;;15.60;99.90;;;;;;5136684;27;20027;-59
2022/06/01 02:40:51;;;;;;;2.38;1.45;;;15.60;99.90;;;;;;5136793;27;20063;-56
2022/06/01 02:43:17;;;;;;;1.42;1.30;;;15.50;99.90;;;;;;5136866;27;20465;-60
2022/06/01 02:45:43;;;;;;;1.00;0.90;;;15.50;99.90;;;;;;5136615;27;20043;-57
2022/06/01 02:48:09;;;;;;;2.45;1.08;;;15.50;99.90;;;;;;5136224;27;20061;-60
2022/06/01 02:50:37;;;;;;;1.80;1.15;;;15.50;99.90;;;;;;5136558;27;20030;-59
2022/06/01 02:53:03;;;;;;;1.70;1.13;;;15.50;99.90;;;;;;5136500;27;20023;-60
2022/06/01 02:55:30;;;;;;;1.20;1.00;;;15.50;99.90;;;;;;5136035;27;20039;-56
2022/06/01 02:57:57;;;;;;;0.70;0.70;;;15.50;99.90;;;;;;5136294;27;20027;-59
2022/06/01 03:00:26;;;;;;;1.40;0.93;;;15.50;99.90;;;;;;5136506;27;20401;-57
2022/06/01 03:02:55;;;;;;;1.00;0.90;;;15.50;99.90;;;;;;5136226;27;20031;-61
2022/06/01 03:05:24;;;;;;;2.28;1.00;;;15.50;99.90;;;;;;5136715;27;20444;-59
2022/06/01 03:07:50;;;;;;;1.60;1.10;;;15.50;99.90;;;;;;5136413;27;20034;-58
2022/06/01 03:10:17;;;;;;;0.90;0.80;;;15.50;99.90;;;;;;5135981;27;20046;-61
2022/06/01 03:12:43;;;;;;;1.52;0.80;;;15.40;99.90;;;;;;5136134;27;20015;-57
2022/06/01 03:15:11;;;;;;;1.08;0.98;;;15.40;99.90;;;;;;5135959;27;20023;-57
2022/06/01 03:17:38;;;;;;;1.00;0.85;;;15.50;99.90;;;;;;5135979;27;20051;-55
2022/06/01 03:20:08;;;;;;;1.67;0.93;;;15.40;99.90;;;;;;5135918;27;20029;-63
2022/06/01 03:22:35;;;;;;;1.25;0.80;;;15.40;99.90;;;;;;5135794;27;20031;-61
2022/06/01 03:25:03;;;;;;;1.10;1.00;;;15.40;99.90;;;;;;5135655;27;20015;-62
2022/06/01 03:27:28;;;;;;;0.98;0.70;;;15.40;99.90;;;;;;5136027;27;20054;-56
2022/06/01 03:29:54;;;;;;;1.23;0.82;;;15.50;99.90;;;;;;5135477;27;20411;-56
2022/06/01 03:32:20;;;;;;;1.23;0.70;;;15.40;99.90;;;;;;5134699;27;20027;-60
2022/06/01 03:34:45;;;;;;;1.10;0.77;;;15.40;99.90;;;;;;5135767;27;20030;-59
2022/06/01 03:37:11;;;;;;;0.52;0.50;;;15.40;99.90;;;;;;5135450;27;20122;-58
2022/06/01 03:39:37;;;;;;;0.93;0.65;;;15.40;99.90;;;;;;5135419;27;20034;-61
2022/06/01 03:42:03;;;;;;;1.23;0.60;;;15.50;99.90;;;;;;5135634;27;20110;-60
2022/06/01 03:47:12;;;;;;;0.80;0.75;;;15.50;99.90;;;;;;5135288;27;20035;-61
2022/06/01 03:49:39;;;;;;;1.95;0.98;;;15.60;99.90;;;;;;5135380;27;20020;-57
2022/06/01 03:52:06;;;;;;;1.05;0.90;;;15.60;99.90;;;;;;5135200;27;20058;-54
2022/06/01 03:54:32;;;;;;;0.60;0.60;;;15.60;99.90;;;;;;5135311;27;20141;-59
2022/06/01 03:56:58;;;;;;;0.90;0.70;;;15.50;99.90;;;;;;5135125;27;20039;-57
2022/06/01 03:59:24;;;;;;;1.92;0.70;;;15.60;99.90;;;;;;5135058;27;20102;-61
2022/06/01 04:01:49;;;;;;;2.38;0.88;;;15.60;99.90;;;;;;5135001;27;20035;-62
2022/06/01 04:04:15;;;;;;;2.60;0.90;;;15.70;99.90;;;;;;5135023;27;20541;-60
2022/06/01 04:06:41;;;;;;;2.72;1.17;;;15.70;99.90;;;;;;5135036;27;20076;-57
2022/06/01 04:09:06;;;;;;;1.33;0.88;;;15.70;99.90;;;;;;5134841;27;20094;-59
2022/06/01 04:11:32;;;;;;;0.85;0.70;;;15.60;99.90;;;;;;5134904;27;20530;-57
2022/06/01 04:13:58;;;;;;;4.00;1.23;;;15.70;99.90;;;;;;5134940;27;20022;-59
2022/06/01 04:16:23;;;;;;;0.88;0.80;;;15.70;99.90;;;;;;5134602;27;20016;-62
2022/06/01 04:18:49;;;;;;;1.80;1.00;;;15.70;99.90;;;;;;5134907;27;20480;-62
2022/06/01 04:21:21;;;;;;;1.73;1.25;;;15.80;99.90;;;;;;5134780;27;20023;-58
2022/06/01 04:23:48;;;;;;;3.10;1.00;;;15.80;99.90;;;;;;5134677;27;20023;-58
2022/06/01 04:26:16;;;;;;;2.88;0.93;;;15.80;99.90;;;;;;5134599;27;20488;-54
2022/06/01 04:28:43;;;;;;;1.20;1.10;;;15.80;99.90;;;;;;5134457;27;20102;-61
2022/06/01 04:31:08;;;;;;;2.38;1.15;;;15.80;99.90;;;;;;5134511;27;20034;-59
2022/06/01 04:33:35;;;;;;;1.33;1.00;;;15.80;99.90;;;;;;5134662;27;20019;-59
2022/06/01 04:36:00;;;;;;;2.15;1.52;;;15.80;99.90;;;;;;5134785;27;20031;-61
2022/06/01 04:38:26;;;;;;;1.42;1.20;;;15.80;99.90;;;;;;5134444;27;20127;-56
2022/06/01 04:40:53;;;;;;;2.10;1.30;;;15.80;99.90;;;;;;5134601;27;20083;-59
2022/06/01 04:43:21;;;;;;;2.58;1.33;;;15.90;99.90;;;;;;5133802;27;20502;-58
2022/06/01 04:45:50;;;;;;;2.28;1.17;;;15.90;99.90;;;;;;5134210;27;20058;-55
2022/06/01 04:48:16;;;;;;;3.45;1.58;;;15.90;99.90;;;;;;5134235;27;20102;-60
2022/06/01 04:50:42;;;;;;;1.27;1.05;;;15.90;99.90;;;;;;5133007;27;20110;-57
2022/06/01 04:53:12;;;;;;;1.55;0.95;;;16.00;99.90;;;;;;5134381;27;20449;-57
2022/06/01 04:55:39;;;;;;;2.63;2.08;;;16.00;99.90;;;;;;5125700;27;20073;-56
2022/06/01 04:58:05;;;;;;;6.50;4.03;;;16.00;99.90;;;;;;5119055;28;20031;-60
2022/06/01 05:00:33;;;;;;;3.88;2.60;;;16.00;99.90;;;;;;5120085;28;20131;-61
2022/06/01 05:02:59;;;;;;;3.47;2.60;;;16.00;99.90;;;;;;5116526;28;20398;-63
2022/06/01 05:05:25;;;;;;;4.20;2.40;;;16.20;99.90;;;;;;5137369;27;20457;-59
2022/06/01 05:07:50;;;;;;;3.10;2.22;;;16.30;99.90;;;;;;5132087;28;20110;-60
2022/06/01 05:10:16;;;;;;;5.20;3.30;;;16.40;99.90;;;;;;5132344;28;20015;-59
2022/06/01 05:12:42;;;;;;;4.47;3.13;;;16.50;99.90;;;;;;5129376;28;20034;-59
2022/06/01 05:15:09;;;;;;;4.38;2.60;;;16.60;99.90;;;;;;5131348;28;20094;-59
2022/06/01 05:17:34;;;;;;;3.40;2.60;;;16.70;99.90;;;;;;5131236;28;20028;-60
2022/06/01 05:20:01;;;;;;;3.17;2.50;;;16.70;99.90;;;;;;5126045;28;20114;-62
2022/06/01 05:22:26;;;;;;;2.92;2.58;;;16.80;99.90;;;;;;5123414;28;20059;-63
2022/06/01 05:24:52;;;;;;;2.03;1.83;;;16.80;99.90;;;;;;5113506;27;20078;-59
2022/06/01 05:27:18;;;;;;;1.80;1.70;;;16.90;99.90;;;;;;5115441;28;20469;-60
2022/06/01 05:29:44;;;;;;;2.60;2.13;;;17.10;99.90;;;;;;5100917;28;20023;-60
2022/06/01 05:32:13;;;;;;;4.65;1.98;;;17.10;99.90;;;;;;5120128;28;20027;-58
2022/06/01 05:34:39;;;;;;;3.72;2.28;;;17.10;99.90;;;;;;5136092;27;20023;-58
2022/06/01 05:37:04;;;;;;;2.63;1.95;;;17.10;99.90;;;;;;5117477;28;20393;-59
2022/06/01 05:39:30;;;;;;;2.88;2.30;;;17.10;99.90;;;;;;5114952;28;20027;-58
2022/06/01 05:41:56;;;;;;;3.05;1.65;;;17.20;99.90;;;;;;5110964;28;20038;-56
2022/06/01 05:44:22;;;;;;;2.28;1.75;;;17.30;99.90;;;;;;5112590;28;20027;-60
2022/06/01 05:46:59;;;;;;;2.05;1.70;;;17.40;99.90;;;;;;5116854;28;20030;-59
2022/06/01 05:49:25;;;;;;;2.95;1.58;;;17.50;99.90;;;;;;5127615;27;20019;-56
2022/06/01 05:51:51;;;;;;;3.67;2.50;;;17.70;99.90;;;;;;5127823;28;20412;-57
2022/06/01 05:54:17;;;;;;;11.55;2.10;;;17.70;99.90;;;;;;5131636;27;20011;-59
2022/06/01 05:56:43;;;;;;;2.30;1.70;;;17.90;99.90;;;;;;5135388;27;20427;-58
2022/06/01 05:59:08;;;;;;;4.38;2.13;;;18.10;99.90;;;;;;5135535;27;20529;-61
2022/06/01 06:01:34;;;;;;;2.88;2.20;;;18.20;99.90;;;;;;5135941;27;20030;-59
2022/06/01 06:04:00;;;;;;;2.63;2.42;;;18.30;99.90;;;;;;5136077;27;20035;-60
2022/06/01 06:06:26;;;;;;;1.95;1.67;;;18.30;99.90;;;;;;5128769;27;20038;-59
2022/06/01 06:08:59;;;;;;;4.22;1.95;;;18.40;99.90;;;;;;5115484;28;20047;-57
2022/06/01 06:11:26;;;;;;;;;;;18.50;99.90;;;;;;5116407;27;20023;-58
2022/06/01 06:13:52;;;;;;;4.38;1.73;;;18.60;99.90;;;;;;5124995;27;19907;-62
2022/06/01 06:16:18;;;;;;;3.15;1.42;;;18.70;99.90;;;;;;5131224;27;20098;-58
2022/06/01 06:18:44;;;;;;;2.17;1.80;;;18.80;99.90;;;;;;5134097;27;20023;-53
2022/06/01 06:21:11;;;;;;;4.32;2.28;;;19.00;99.90;;;;;;5133745;27;20106;-61
2022/06/01 06:23:37;;;;;;;4.25;1.73;;;19.10;99.90;;;;;;5135323;27;20031;-57
2022/06/01 06:26:03;;;;;;;2.85;1.38;;;19.20;99.90;;;;;;5133693;27;20015;-59
2022/06/01 06:28:30;;;;;;;2.40;1.40;;;19.40;99.90;;;;;;5135106;27;20389;-58
2022/06/01 06:30:56;;;;;;;4.18;2.05;;;19.60;99.90;;;;;;5134674;27;20536;-56
2022/06/01 06:33:22;;;;;;;2.30;1.65;;;19.70;99.90;;;;;;5133564;27;20582;-57
2022/06/01 06:36:00;;;;;;;2.22;1.60;;;19.80;99.90;;;;;;5131636;27;20043;-57
2022/06/01 06:38:27;;;;;;;5.18;1.85;;;19.90;99.90;;;;;;5129683;27;20035;-57
2022/06/01 06:40:54;;;;;;;2.75;1.90;;;20.10;99.90;;;;;;5138240;27;20023;-56
2022/06/01 06:43:24;;;;;;;3.13;1.67;;;20.30;99.90;;;;;;5152774;27;20043;-54
2022/06/01 06:45:55;;;;;;;3.95;1.60;;;20.50;99.90;;;;;;5155388;27;20038;-57
2022/06/01 06:48:21;;;;;;;4.50;2.20;;;20.60;99.90;;;;;;5113414;28;20092;-54
2022/06/01 06:50:47;;;;;;;10.18;4.50;;;20.70;99.90;;;;;;5109334;28;20035;-60
2022/06/01 06:53:15;;;;;;;5.47;3.50;;;20.90;99.90;;;;;;5121045;27;20034;-59
2022/06/01 06:55:41;;;;;;;8.02;3.40;;;21.00;99.90;;;;;;5111111;28;20134;-58
2022/06/01 06:58:11;;;;;;;4.20;2.83;;;21.10;99.90;;;;;;5113304;27;20131;-58
2022/06/01 07:00:37;;;;;;;5.28;2.97;;;21.30;99.90;;;;;;5122578;27;20024;-55
2022/06/01 07:03:04;;;;;;;3.45;2.95;;;21.40;99.90;;;;;;5123447;27;20031;-58
2022/06/01 07:08:16;;;;;;;6.53;3.33;;;21.70;99.90;;;;;;5112157;28;20031;-60
2022/06/01 07:10:42;;;;;;;6.07;3.33;;;21.80;99.90;;;;;;5121442;27;20023;-57
2022/06/01 07:13:07;;;;;;;9.15;2.90;;;22.00;99.90;;;;;;5130900;27;20015;-55
2022/06/01 07:15:33;;;;;;;3.55;2.47;;;22.20;99.90;;;;;;5129637;27;20019;-52
2022/06/01 07:17:59;;;;;;;3.35;2.35;;;22.30;99.90;;;;;;5132781;27;20021;-58
2022/06/01 07:20:25;;;;;;;6.25;2.28;;;22.50;99.90;;;;;;5130942;27;20093;-55
2022/06/01 07:22:50;;;;;;;3.47;1.98;;;22.60;99.90;;;;;;5132035;27;20027;-58
2022/06/01 07:25:16;;;;;;;4.78;2.30;;;22.70;99.90;;;;;;5130812;27;20016;-56
2022/06/01 07:27:42;;;;;;;3.05;1.60;;;22.90;99.90;;;;;;5132241;27;20090;-57
2022/06/01 07:30:10;;;;;;;5.57;2.20;;;23.10;99.90;;;;;;5131823;27;20068;-57
2022/06/01 07:32:36;;;;;;;6.38;2.50;;;23.40;99.90;;;;;;5131832;27;20493;-58
2022/06/01 07:35:04;;;;;;;3.78;2.15;;;24.10;99.90;;;;;;5126542;27;20058;-54
2022/06/01 07:43:07;;;;;;;4.47;2.42;;;30.50;70.80;;;;;;5139287;27;20034;-53
2022/06/01 07:45:38;;;;;;;6.00;2.20;;;31.70;70.00;;;;;;5134540;27;20020;-53
2022/06/01 07:48:06;;;;;;;3.22;1.70;;;32.80;62.70;;;;;;5133386;27;20033;-52
2022/06/01 07:50:34;;;;;;;4.32;2.00;;;33.80;59.50;;;;;;5134665;27;20023;-58
2022/06/01 07:53:00;;;;;;;4.45;2.28;;;34.30;56.80;;;;;;5128102;27;20438;-53
2022/06/01 07:55:27;;;;;;;4.93;2.97;;;34.70;53.80;;;;;;5118878;27;20032;-56
2022/06/01 07:57:53;;;;;;;4.90;2.72;;;34.80;50.80;;;;;;5138878;27;20035;-60
2022/06/01 08:00:19;;;;;;;4.50;2.25;;;35.00;51.70;;;;;;5116834;27;20027;-56
2022/06/01 08:02:45;;;;;;;6.32;3.05;;;35.20;53.20;;;;;;5132534;27;20100;-54
2022/06/01 08:05:15;;;;;;;4.13;2.05;;;35.40;51.70;;;;;;5122743;27;20051;-56
2022/06/01 08:07:43;;;;;;;5.15;1.98;;;35.80;49.50;;;;;;5123080;27;20481;-59
2022/06/01 08:10:10;;;;;;;2.38;1.65;;;36.20;49.30;;;;;;5115108;27;20023;-56
2022/06/01 08:15:24;;;;;;;3.25;1.90;;;36.60;47.40;;;;;;5134328;27;20529;-60
2022/06/01 08:17:52;;;;;;;6.22;2.13;;;36.90;47.00;;;;;;5100526;27;20028;-56
2022/06/01 08:20:21;;;;;;;4.18;2.03;;;36.20;46.80;;;;;;5115879;27;20504;-55
2022/06/01 08:22:47;;;;;;;2.40;1.70;;;36.00;48.00;;;;;;5132997;27;20023;-59
2022/06/01 08:25:18;;;;;;;6.07;2.25;;;36.20;49.60;;;;;;5121457;27;20114;-53
2022/06/01 08:27:45;;;;;;;5.10;2.30;;;36.10;46.80;;;;;;5115650;27;20072;-57
2022/06/01 08:30:12;;;;;;;4.30;2.25;;;36.00;48.20;;;;;;5133220;27;20050;-57
2022/06/01 08:32:37;;;;;;;4.03;1.92;;;35.70;49.10;;;;;;5122267;27;20023;-56
2022/06/01 08:35:05;;;;;;;5.72;1.92;;;36.10;49.10;;;;;;5127675;27;20079;-55
2022/06/01 08:37:31;;;;;;;2.42;1.52;;;36.50;46.40;;;;;;5131021;27;20033;-56
2022/06/01 08:39:57;;;;;;;2.92;1.90;;;36.40;48.50;;;;;;5113904;27;20027;-54
2022/06/01 08:42:24;;;;;;;7.68;2.38;;;36.50;48.10;;;;;;5116000;27;20043;-56
2022/06/01 08:44:51;;;;;;;5.85;2.08;;;36.40;46.90;;;;;;5121551;27;20030;-57
2022/06/01 08:47:20;;;;;;;8.40;2.58;;;35.90;47.90;;;;;;5118255;27;20036;-57
2022/06/01 08:49:45;;;;;;;4.15;2.35;;;35.80;47.00;;;;;;5115077;27;20027;-59
2022/06/01 08:52:12;;;;;;;4.50;2.15;;;35.30;48.30;;;;;;5116916;27;20019;-57
2022/06/01 08:54:39;;;;;;;8.18;2.58;;;35.70;48.60;;;;;;5114328;27;20019;-55
2022/06/01 08:57:20;;;;;;;3.95;2.13;;;35.80;47.80;;;;;;5118065;27;20054;-58
2022/06/01 08:59:56;;;;;;;3.22;1.60;;;35.70;48.70;;;;;;5124746;28;20031;-53
2022/06/01 09:03:10;;;;;;;4.82;2.10;;;35.90;50.30;;;;;;5120933;28;20039;-60
2022/06/01 09:05:56;;;;;;;3.05;1.77;;;35.90;49.40;;;;;;5098072;28;20066;-56
2022/06/01 09:08:58;;;;;;;4.65;2.13;;;36.10;49.70;;;;;;5118408;27;20028;-55
2022/06/01 09:11:32;;;;;;;3.53;1.83;;;36.00;51.50;;;;;;5112032;28;20011;-60
2022/06/01 09:13:58;;;;;;;4.25;2.00;;;35.80;49.60;;;;;;5117723;28;20451;-58
2022/06/01 09:16:52;;;;;;;3.58;1.70;;;36.10;48.90;;;;;;5130812;28;20039;-59
2022/06/01 09:25:03;;;;;;;5.60;2.38;;;36.60;48.10;;;;;;5128935;28;20085;-57
2022/06/01 09:27:59;;;;;;;6.55;2.03;;;35.60;47.90;;;;;;5126014;28;20057;-60
2022/06/01 09:30:39;;;;;;;3.80;2.47;;;35.20;49.30;;;;;;5130635;27;20027;-60
2022/06/01 09:33:12;;;;;;;5.85;2.13;;;35.00;51.10;;;;;;5128500;27;20058;-60
2022/06/01 09:35:46;;;;;;;5.78;1.98;;;34.80;48.70;;;;;;5127547;27;20435;-56
2022/06/01 09:38:36;;;;;;;6.90;2.20;;;35.30;49.70;;;;;;5132155;27;20015;-59
2022/06/01 09:41:21;;;;;;;2.13;1.55;;;35.40;48.10;;;;;;5131863;27;20027;-60
2022/06/01 09:44:21;;;;;;;3.88;1.85;;;35.60;48.40;;;;;;5129753;27;20031;-56
2022/06/01 09:46:47;;;;;;;4.07;1.60;;;35.80;49.90;;;;;;5116797;27;20038;-58
2022/06/01 09:49:22;;;;;;;3.75;1.55;;;36.10;48.20;;;;;;5123142;27;20027;-55
2022/06/01 09:51:54;;;;;;;6.80;1.83;;;36.40;51.20;;;;;;5151547;27;20528;-58
2022/06/01 09:54:28;;;;;;;7.28;1.90;;;36.40;46.70;;;;;;5142305;27;20111;-58
2022/06/01 09:56:55;;;;;;;4.32;1.80;;;36.40;45.50;;;;;;5111546;27;20051;-59
2022/06/01 10:08:24;;;;;;;5.05;1.73;;;36.50;45.30;;;;;;5129383;27;20038;-59
2022/06/01 10:10:58;;;;;;;5.43;1.50;;;36.70;47.00;;;;;;5108520;28;20027;-56
2022/06/01 10:13:31;;;;;;;6.45;2.00;;;36.80;44.30;;;;;;5113581;28;20488;-61
2022/06/01 10:16:04;;;;;;;6.75;1.73;;;36.80;47.80;;;;;;5118382;27;20024;-56
2022/06/01 10:18:34;;;;;;;5.70;1.85;;;36.30;45.70;;;;;;5116353;27;20024;-59
2022/06/01 10:21:07;;;;;;;6.38;1.42;;;35.90;47.40;;;;;;5101474;27;20057;-55
2022/06/01 10:23:47;;;;;;;3.60;1.50;;;35.80;49.10;;;;;;5125306;27;20498;-57
2022/06/01 10:26:21;;;;;;;3.42;1.40;;;35.90;49.60;;;;;;5125922;27;20034;-58
2022/06/01 10:28:58;;;;;;;3.08;1.50;;;36.20;45.70;;;;;;5116595;28;20394;-61
2022/06/01 10:31:27;;;;;;;3.25;1.33;;;36.40;47.80;;;;;;5124391;27;20374;-58
2022/06/01 10:34:09;;;;;;;2.90;1.40;;;36.40;47.90;;;;;;5116265;28;20164;-57
2022/06/01 10:36:51;;;;;;;4.35;1.80;;;36.40;47.50;;;;;;5110536;27;20027;-61
2022/06/01 10:39:23;;;;;;;;;;;36.20;46.60;;;;;;5133807;27;20052;-58
2022/06/01 10:42:09;;;;;;;4.07;1.88;;;36.30;45.80;;;;;;5125054;27;19920;-61
2022/06/01 10:44:44;;;;;;;4.47;1.98;;;36.10;45.10;;;;;;5121321;27;20501;-58
2022/06/01 10:47:55;;;;;;;5.95;2.20;;;36.30;48.30;;;;;;5120719;27;20031;-57
2022/06/01 10:50:27;;;;;;;5.90;2.20;;;36.60;45.40;;;;;;5110684;27;20035;-59
2022/06/01 10:53:05;;;;;;;5.43;1.98;;;36.50;43.70;;;;;;5123907;27;20031;-60
2022/06/01 10:55:34;;;;;;;6.18;2.05;;;36.00;43.50;;;;;;5126312;27;20055;-57
2022/06/01 10:58:02;;;;;;;3.88;2.10;;;35.50;47.40;;;;;;5117386;27;20035;-60
2022/06/01 11:00:39;;;;;;;5.45;1.73;;;35.70;46.00;;;;;;5119140;27;20113;-57
2022/06/01 11:03:21;;;;;;;6.38;1.80;;;35.30;46.10;;;;;;5114716;28;20028;-60
2022/06/01 11:06:12;;;;;;;4.78;1.60;;;34.80;46.30;;;;;;5115518;27;20098;-54
2022/06/01 11:09:15;;;;;;;5.38;1.90;;;34.90;49.60;;;;;;5121609;27;20755;-59
2022/06/01 11:12:22;;;;;;;4.55;1.73;;;35.50;48.70;;;;;;5119250;27;20050;-61
2022/06/01 11:15:11;;;;;;;3.60;1.45;;;35.70;46.40;;;;;;5117195;27;20031;-57
2022/06/01 11:17:45;;;;;;;4.10;1.45;;;36.00;45.50;;;;;;5115909;28;20028;-59
2022/06/01 11:20:37;;;;;;;2.80;1.35;;;36.30;44.20;;;;;;5116725;27;20694;-57
2022/06/01 11:23:21;;;;;;;3.90;2.08;;;36.50;45.80;;;;;;5107219;27;20096;-61
2022/06/01 11:26:03;;;;;;;2.42;1.48;;;36.80;45.90;;;;;;5120685;27;20378;-57
2022/06/01 11:28:32;;;;;;;3.03;1.85;;;36.90;46.00;;;;;;5115107;28;20461;-60
2022/06/01 11:31:18;;;;;;;2.75;1.70;;;36.40;47.90;;;;;;5114790;28;20034;-59
2022/06/01 11:34:08;;;;;;;3.03;1.80;;;36.40;50.60;;;;;;5114931;28;20028;-58
2022/06/01 11:36:48;;;;;;;2.20;1.55;;;35.80;47.80;;;;;;5113291;28;20392;-57
2022/06/01 11:39:23;;;;;;;2.78;1.80;;;35.40;48.80;;;;;;5112853;28;20027;-58
2022/06/01 11:42:15;;;;;;;4.38;1.50;;;35.50;48.10;;;;;;5112800;28;20085;-59
2022/06/01 11:44:50;;;;;;;2.95;1.67;;;35.80;47.30;;;;;;5112895;28;20031;-57
2022/06/01 11:47:23;;;;;;;2.65;1.77;;;35.70;45.80;;;;;;5112313;28;20420;-57
2022/06/01 11:50:10;;;;;;;4.82;2.15;;;35.10;47.60;;;;;;5111811;28;20107;-58
2022/06/01 11:52:57;;;;;;;3.72;1.30;;;35.30;47.30;;;;;;5111839;28;20495;-56
2022/06/01 11:55:44;;;;;;;3.28;1.73;;;35.50;49.30;;;;;;5112362;28;20050;-58
2022/06/01 11:58:20;;;;;;;2.75;1.90;;;35.90;48.40;;;;;;5112664;28;20279;-60
2022/06/01 12:00:51;;;;;;;3.22;1.55;;;36.00;47.00;;;;;;5112530;28;20035;-58
2022/06/01 12:03:25;;;;;;;5.72;2.20;;;35.50;48.80;;;;;;5114208;28;20034;-59
2022/06/01 12:06:04;;;;;;;3.03;1.80;;;35.40;47.30;;;;;;5114462;28;20058;-58
2022/06/01 12:08:53;;;;;;;1.60;1.50;;;35.60;49.70;;;;;;5114558;28;20026;-57
2022/06/01 12:11:40;;;;;;;4.05;1.92;;;35.70;49.00;;;;;;5114497;28;20036;-58
2022/06/01 12:14:26;;;;;;;3.17;1.50;;;35.40;47.50;;;;;;5113869;28;20065;-59
2022/06/01 12:17:22;;;;;;;5.18;1.70;;;35.00;49.40;;;;;;5113986;28;20019;-60
2022/06/01 12:19:50;;;;;;;3.05;1.92;;;34.80;49.10;;;;;;5114511;28;20023;-60
2022/06/01 12:28:54;;;;;;;4.50;1.83;;;34.00;49.80;;;;;;5113949;28;20047;-61
2022/06/01 12:31:29;;;;;;;2.25;1.63;;;33.80;49.90;;;;;;5114106;28;20038;-57
2022/06/01 12:34:03;;;;;;;2.10;1.35;;;34.00;51.30;;;;;;5114250;28;20023;-61
2022/06/01 12:36:53;;;;;;;3.05;1.60;;;34.30;50.60;;;;;;5113932;28;20012;-58
2022/06/01 12:39:31;;;;;;;2.47;1.70;;;34.40;47.90;;;;;;5113998;28;20041;-60
2022/06/01 12:42:07;;;;;;;1.83;1.70;;;34.80;50.20;;;;;;5113615;28;20019;-59
2022/06/01 12:44:38;;;;;;;2.00;1.33;;;35.10;49.00;;;;;;5114178;28;20032;-60
2022/06/01 12:47:04;;;;;;;4.55;2.20;;;35.40;49.60;;;;;;5114080;28;20111;-57
2022/06/01 12:49:33;;;;;;;3.00;1.58;;;35.20;48.20;;;;;;5113810;28;20039;-54
2022/06/01 12:52:06;;;;;;;2.33;1.80;;;34.70;48.70;;;;;;5113824;28;20024;-57
2022/06/01 12:54:43;;;;;;;2.33;1.77;;;34.80;50.50;;;;;;5114024;28;20028;-58
2022/06/01 12:57:14;;;;;;;3.00;1.98;;;35.20;49.20;;;;;;5113399;28;20051;-58
2022/06/01 12:59:42;;;;;;;7.78;1.75;;;35.40;50.10;;;;;;5113657;28;20076;-60
2022/06/01 13:02:11;;;;;;;2.13;1.60;;;35.20;50.20;;;;;;5113911;28;20024;-59
2022/06/01 13:04:38;;;;;;;3.40;2.00;;;35.30;50.90;;;;;;5119983;28;20435;-59
2022/06/01 13:07:07;;;;;;;4.28;1.92;;;35.20;49.80;;;;;;5120458;28;20055;-61
2022/06/01 13:09:34;;;;;;;3.72;1.83;;;35.30;50.80;;;;;;5120733;28;20023;-61
2022/06/01 13:12:15;;;;;;;2.30;1.98;;;35.20;50.90;;;;;;5120311;28;20024;-61
2022/06/01 13:14:40;;;;;;;3.10;2.15;;;35.20;50.60;;;;;;5120388;28;20038;-58
2022/06/01 13:17:17;;;;;;;4.53;2.00;;;35.50;49.80;;;;;;5120795;28;20020;-58
2022/06/01 13:19:55;;;;;;;5.53;2.22;;;35.90;49.70;;;;;;5120440;28;20746;-59
2022/06/01 13:22:25;;;;;;;2.95;2.22;;;36.20;49.70;;;;;;5120283;28;20030;-58
2022/06/01 13:25:06;;;;;;;2.45;1.65;;;36.20;48.40;;;;;;5120218;28;20464;-57
2022/06/01 13:27:35;;;;;;;2.78;1.70;;;36.20;48.60;;;;;;5120770;28;20046;-58
2022/06/01 13:30:02;;;;;;;4.07;2.08;;;36.20;48.80;;;;;;5120171;28;20016;-58
2022/06/01 13:32:41;;;;;;;3.20;1.80;;;36.40;47.30;;;;;;5120366;28;20024;-59
2022/06/01 13:35:53;;;;;;;2.20;1.75;;;36.10;48.20;;;;;;5120630;27;20113;-58
2022/06/01 13:38:23;;;;;;;2.83;1.80;;;36.20;49.50;;;;;;5148190;27;20030;-58
2022/06/01 13:40:55;;;;;;;5.35;2.53;;;36.10;50.80;;;;;;5159775;27;20121;-59
2022/06/01 13:43:22;;;;;;;4.20;2.30;;;35.70;45.70;;;;;;5160962;27;20027;-61
2022/06/01 13:46:03;;;;;;;3.67;1.98;;;34.90;49.50;;;;;;5160790;27;20023;-57
2022/06/01 13:48:37;;;;;;;3.13;1.77;;;34.90;51.10;;;;;;5161325;27;20507;-58
2022/06/01 13:51:14;;;;;;;3.25;1.90;;;35.00;48.80;;;;;;5161349;27;20380;-57